sensor_id;sensor_type;location;lat;lon;timestamp;P1;durP1;ratioP1;P2;durP2;ratioP2
4652;SDS011;9900;48.738;9.306;2023-06-22T00:02:18;8.97;;;7.70;;
4652;SDS011;9900;48.738;9.306;2023-06-22T00:04:48;14.80;;;7.73;;
4652;SDS011;9900;48.738;9.306;2023-06-22T00:07:17;11.07;;;7.60;;
4652;SDS011;9900;48.738;9.306;2023-06-22T00:09:45;11.30;;;7.13;;
4652;SDS011;9900;48.738;9.306;2023-06-22T00:12:14;12.60;;;7.33;;
4652;SDS011;9900;48.738;9.306;2023-06-22T00:14:43;12.83;;;7.93;;
4652;SDS011;9900;48.738;9.306;2023-06-22T00:17:11;15.13;;;7.40;;
4652;SDS011;9900;48.738;9.306;2023-06-22T00:19:40;10.00;;;7.10;;
4652;SDS011;9900;48.738;9.306;2023-06-22T00:22:10;11.33;;;7.60;;
4652;SDS011;9900;48.738;9.306;2023-06-22T00:24:39;11.83;;;7.57;;
4652;SDS011;9900;48.738;9.306;2023-06-22T00:27:09;13.30;;;7.27;;
4652;SDS011;9900;48.738;9.306;2023-06-22T00:29:37;9.70;;;7.77;;
4652;SDS011;9900;48.738;9.306;2023-06-22T00:32:06;10.77;;;7.77;;
4652;SDS011;9900;48.738;9.306;2023-06-22T00:34:35;12.53;;;7.80;;
4652;SDS011;9900;48.738;9.306;2023-06-22T00:37:04;9.93;;;7.23;;
4652;SDS011;9900;48.738;9.306;2023-06-22T00:39:34;9.47;;;7.00;;
4652;SDS011;9900;48.738;9.306;2023-06-22T00:42:03;10.87;;;7.10;;
4652;SDS011;9900;48.738;9.306;2023-06-22T00:44:32;16.30;;;8.30;;
4652;SDS011;9900;48.738;9.306;2023-06-22T00:47:01;16.73;;;8.67;;
4652;SDS011;9900;48.738;9.306;2023-06-22T00:49:30;8.73;;;7.80;;
4652;SDS011;9900;48.738;9.306;2023-06-22T00:51:59;10.27;;;6.90;;
4652;SDS011;9900;48.738;9.306;2023-06-22T00:54:27;11.13;;;8.03;;
4652;SDS011;9900;48.738;9.306;2023-06-22T00:56:58;10.70;;;7.40;;
4652;SDS011;9900;48.738;9.306;2023-06-22T00:59:26;9.03;;;6.30;;
4652;SDS011;9900;48.738;9.306;2023-06-22T01:01:55;10.67;;;7.10;;
4652;SDS011;9900;48.738;9.306;2023-06-22T01:04:26;14.23;;;7.63;;
4652;SDS011;9900;48.738;9.306;2023-06-22T01:07:04;10.53;;;7.00;;
4652;SDS011;9900;48.738;9.306;2023-06-22T01:09:40;10.57;;;7.00;;
4652;SDS011;9900;48.738;9.306;2023-06-22T01:12:14;8.63;;;6.87;;
4652;SDS011;9900;48.738;9.306;2023-06-22T01:14:45;9.47;;;6.63;;
4652;SDS011;9900;48.738;9.306;2023-06-22T01:17:17;16.50;;;7.67;;
4652;SDS011;9900;48.738;9.306;2023-06-22T01:19:48;10.93;;;7.93;;
4652;SDS011;9900;48.738;9.306;2023-06-22T01:22:19;12.60;;;7.33;;
4652;SDS011;9900;48.738;9.306;2023-06-22T01:24:51;11.30;;;8.43;;
4652;SDS011;9900;48.738;9.306;2023-06-22T01:27:36;10.50;;;7.63;;
4652;SDS011;9900;48.738;9.306;2023-06-22T01:30:11;10.23;;;7.23;;
4652;SDS011;9900;48.738;9.306;2023-06-22T01:32:40;10.77;;;7.17;;
4652;SDS011;9900;48.738;9.306;2023-06-22T01:35:09;11.83;;;7.03;;
4652;SDS011;9900;48.738;9.306;2023-06-22T01:37:38;8.37;;;6.57;;
4652;SDS011;9900;48.738;9.306;2023-06-22T01:40:08;9.97;;;7.40;;
4652;SDS011;9900;48.738;9.306;2023-06-22T01:42:37;11.07;;;7.47;;
4652;SDS011;9900;48.738;9.306;2023-06-22T01:45:06;8.93;;;7.13;;
4652;SDS011;9900;48.738;9.306;2023-06-22T01:47:37;9.63;;;7.63;;
4652;SDS011;9900;48.738;9.306;2023-06-22T01:50:06;8.00;;;6.90;;
4652;SDS011;9900;48.738;9.306;2023-06-22T01:52:36;10.53;;;6.83;;
4652;SDS011;9900;48.738;9.306;2023-06-22T01:55:05;12.27;;;8.30;;
4652;SDS011;9900;48.738;9.306;2023-06-22T01:57:35;11.87;;;8.20;;
4652;SDS011;9900;48.738;9.306;2023-06-22T02:00:05;12.77;;;8.17;;
4652;SDS011;9900;48.738;9.306;2023-06-22T02:02:40;11.00;;;7.40;;
4652;SDS011;9900;48.738;9.306;2023-06-22T02:05:11;12.70;;;8.10;;
4652;SDS011;9900;48.738;9.306;2023-06-22T02:07:45;17.10;;;9.63;;
4652;SDS011;9900;48.738;9.306;2023-06-22T02:10:15;12.57;;;9.27;;
4652;SDS011;9900;48.738;9.306;2023-06-22T02:12:45;13.00;;;9.17;;
4652;SDS011;9900;48.738;9.306;2023-06-22T02:15:15;12.60;;;9.10;;
4652;SDS011;9900;48.738;9.306;2023-06-22T02:17:45;17.00;;;9.70;;
4652;SDS011;9900;48.738;9.306;2023-06-22T02:20:14;11.10;;;9.17;;
4652;SDS011;9900;48.738;9.306;2023-06-22T02:22:43;18.43;;;11.07;;
4652;SDS011;9900;48.738;9.306;2023-06-22T02:25:12;16.60;;;10.40;;
4652;SDS011;9900;48.738;9.306;2023-06-22T02:27:41;16.63;;;10.10;;
4652;SDS011;9900;48.738;9.306;2023-06-22T02:30:10;14.90;;;9.60;;
4652;SDS011;9900;48.738;9.306;2023-06-22T02:32:39;18.97;;;10.13;;
4652;SDS011;9900;48.738;9.306;2023-06-22T02:35:10;15.83;;;9.80;;
4652;SDS011;9900;48.738;9.306;2023-06-22T02:37:39;12.47;;;9.83;;
4652;SDS011;9900;48.738;9.306;2023-06-22T02:40:09;12.27;;;10.00;;
4652;SDS011;9900;48.738;9.306;2023-06-22T02:42:38;14.50;;;9.50;;
4652;SDS011;9900;48.738;9.306;2023-06-22T02:45:07;17.80;;;10.63;;
4652;SDS011;9900;48.738;9.306;2023-06-22T02:47:36;11.03;;;9.63;;
4652;SDS011;9900;48.738;9.306;2023-06-22T02:50:06;17.10;;;9.37;;
4652;SDS011;9900;48.738;9.306;2023-06-22T02:52:36;14.97;;;10.10;;
4652;SDS011;9900;48.738;9.306;2023-06-22T02:55:06;12.17;;;9.77;;
4652;SDS011;9900;48.738;9.306;2023-06-22T02:57:36;12.57;;;9.83;;
4652;SDS011;9900;48.738;9.306;2023-06-22T03:00:05;15.00;;;9.70;;
4652;SDS011;9900;48.738;9.306;2023-06-22T03:02:43;14.50;;;9.97;;
4652;SDS011;9900;48.738;9.306;2023-06-22T03:05:13;11.90;;;8.90;;
4652;SDS011;9900;48.738;9.306;2023-06-22T03:07:45;13.77;;;9.80;;
4652;SDS011;9900;48.738;9.306;2023-06-22T03:10:14;15.57;;;10.03;;
4652;SDS011;9900;48.738;9.306;2023-06-22T03:12:43;13.70;;;10.07;;
4652;SDS011;9900;48.738;9.306;2023-06-22T03:15:12;17.20;;;11.27;;
4652;SDS011;9900;48.738;9.306;2023-06-22T03:17:41;15.20;;;10.17;;
4652;SDS011;9900;48.738;9.306;2023-06-22T03:20:10;15.17;;;10.47;;
4652;SDS011;9900;48.738;9.306;2023-06-22T03:22:40;14.53;;;10.10;;
4652;SDS011;9900;48.738;9.306;2023-06-22T03:25:11;15.83;;;10.90;;
4652;SDS011;9900;48.738;9.306;2023-06-22T03:27:41;18.77;;;10.40;;
4652;SDS011;9900;48.738;9.306;2023-06-22T03:30:11;13.80;;;11.03;;
4652;SDS011;9900;48.738;9.306;2023-06-22T03:32:40;16.00;;;10.80;;
4652;SDS011;9900;48.738;9.306;2023-06-22T03:35:10;16.93;;;10.73;;
4652;SDS011;9900;48.738;9.306;2023-06-22T03:37:41;15.73;;;10.70;;
4652;SDS011;9900;48.738;9.306;2023-06-22T03:40:12;17.23;;;11.10;;
4652;SDS011;9900;48.738;9.306;2023-06-22T03:42:40;15.20;;;10.60;;
4652;SDS011;9900;48.738;9.306;2023-06-22T03:45:09;17.93;;;10.40;;
4652;SDS011;9900;48.738;9.306;2023-06-22T03:47:38;16.53;;;9.93;;
4652;SDS011;9900;48.738;9.306;2023-06-22T03:50:07;15.07;;;10.60;;
4652;SDS011;9900;48.738;9.306;2023-06-22T03:52:36;14.73;;;11.13;;
4652;SDS011;9900;48.738;9.306;2023-06-22T03:55:06;14.77;;;10.67;;
4652;SDS011;9900;48.738;9.306;2023-06-22T03:57:36;18.83;;;10.60;;
4652;SDS011;9900;48.738;9.306;2023-06-22T04:00:05;20.10;;;11.50;;
4652;SDS011;9900;48.738;9.306;2023-06-22T04:02:37;23.80;;;11.67;;
4652;SDS011;9900;48.738;9.306;2023-06-22T04:05:06;15.63;;;10.90;;
4652;SDS011;9900;48.738;9.306;2023-06-22T04:07:36;17.97;;;11.17;;
4652;SDS011;9900;48.738;9.306;2023-06-22T04:10:05;17.33;;;10.63;;
4652;SDS011;9900;48.738;9.306;2023-06-22T04:12:39;17.90;;;11.33;;
4652;SDS011;9900;48.738;9.306;2023-06-22T04:15:08;18.23;;;12.13;;
4652;SDS011;9900;48.738;9.306;2023-06-22T04:17:39;19.57;;;11.67;;
4652;SDS011;9900;48.738;9.306;2023-06-22T04:20:08;14.57;;;10.33;;
4652;SDS011;9900;48.738;9.306;2023-06-22T04:22:37;17.90;;;11.93;;
4652;SDS011;9900;48.738;9.306;2023-06-22T04:25:06;19.57;;;12.60;;
4652;SDS011;9900;48.738;9.306;2023-06-22T04:27:35;17.47;;;11.80;;
4652;SDS011;9900;48.738;9.306;2023-06-22T04:30:09;19.87;;;11.70;;
4652;SDS011;9900;48.738;9.306;2023-06-22T04:32:39;16.30;;;11.87;;
4652;SDS011;9900;48.738;9.306;2023-06-22T04:35:08;21.07;;;13.53;;
4652;SDS011;9900;48.738;9.306;2023-06-22T04:37:37;19.73;;;12.27;;
4652;SDS011;9900;48.738;9.306;2023-06-22T04:40:07;19.73;;;12.00;;
4652;SDS011;9900;48.738;9.306;2023-06-22T04:42:37;17.50;;;11.67;;
4652;SDS011;9900;48.738;9.306;2023-06-22T04:45:09;19.67;;;11.90;;
4652;SDS011;9900;48.738;9.306;2023-06-22T04:47:38;18.23;;;12.57;;
4652;SDS011;9900;48.738;9.306;2023-06-22T04:50:07;14.77;;;11.00;;
4652;SDS011;9900;48.738;9.306;2023-06-22T04:52:36;17.77;;;11.93;;
4652;SDS011;9900;48.738;9.306;2023-06-22T04:55:05;14.17;;;11.33;;
4652;SDS011;9900;48.738;9.306;2023-06-22T04:57:35;13.90;;;10.53;;
4652;SDS011;9900;48.738;9.306;2023-06-22T05:00:07;14.10;;;10.97;;
4652;SDS011;9900;48.738;9.306;2023-06-22T05:02:52;22.73;;;12.13;;
4652;SDS011;9900;48.738;9.306;2023-06-22T05:05:40;16.47;;;12.17;;
4652;SDS011;9900;48.738;9.306;2023-06-22T05:08:09;18.60;;;11.00;;
4652;SDS011;9900;48.738;9.306;2023-06-22T05:10:38;16.90;;;11.83;;
4652;SDS011;9900;48.738;9.306;2023-06-22T05:13:25;15.30;;;10.33;;
4652;SDS011;9900;48.738;9.306;2023-06-22T05:15:56;12.20;;;9.70;;
4652;SDS011;9900;48.738;9.306;2023-06-22T05:18:28;20.17;;;10.93;;
4652;SDS011;9900;48.738;9.306;2023-06-22T05:20:57;13.87;;;9.40;;
4652;SDS011;9900;48.738;9.306;2023-06-22T05:23:27;14.00;;;9.43;;
4652;SDS011;9900;48.738;9.306;2023-06-22T05:25:55;16.20;;;10.00;;
4652;SDS011;9900;48.738;9.306;2023-06-22T05:28:25;12.63;;;8.97;;
4652;SDS011;9900;48.738;9.306;2023-06-22T05:30:55;16.00;;;9.10;;
4652;SDS011;9900;48.738;9.306;2023-06-22T05:33:24;13.03;;;9.30;;
4652;SDS011;9900;48.738;9.306;2023-06-22T05:35:53;14.20;;;9.13;;
4652;SDS011;9900;48.738;9.306;2023-06-22T05:38:22;15.87;;;9.63;;
4652;SDS011;9900;48.738;9.306;2023-06-22T05:40:50;10.13;;;8.37;;
4652;SDS011;9900;48.738;9.306;2023-06-22T05:43:20;11.77;;;8.87;;
4652;SDS011;9900;48.738;9.306;2023-06-22T05:45:49;14.20;;;8.30;;
4652;SDS011;9900;48.738;9.306;2023-06-22T05:48:19;7.57;;;6.60;;
4652;SDS011;9900;48.738;9.306;2023-06-22T05:50:48;10.50;;;6.33;;
4652;SDS011;9900;48.738;9.306;2023-06-22T05:53:17;9.67;;;5.73;;
4652;SDS011;9900;48.738;9.306;2023-06-22T05:55:46;12.83;;;6.10;;
4652;SDS011;9900;48.738;9.306;2023-06-22T05:58:15;11.10;;;6.13;;
4652;SDS011;9900;48.738;9.306;2023-06-22T06:00:44;13.17;;;6.33;;
4652;SDS011;9900;48.738;9.306;2023-06-22T06:03:13;11.47;;;6.10;;
4652;SDS011;9900;48.738;9.306;2023-06-22T06:05:45;10.90;;;6.40;;
4652;SDS011;9900;48.738;9.306;2023-06-22T06:08:14;8.30;;;5.53;;
4652;SDS011;9900;48.738;9.306;2023-06-22T06:10:43;8.77;;;5.83;;
4652;SDS011;9900;48.738;9.306;2023-06-22T06:13:12;7.80;;;5.80;;
4652;SDS011;9900;48.738;9.306;2023-06-22T06:15:41;8.10;;;6.30;;
4652;SDS011;9900;48.738;9.306;2023-06-22T06:18:09;9.20;;;5.43;;
4652;SDS011;9900;48.738;9.306;2023-06-22T06:20:39;7.77;;;5.13;;
4652;SDS011;9900;48.738;9.306;2023-06-22T06:23:09;11.43;;;5.37;;
4652;SDS011;9900;48.738;9.306;2023-06-22T06:25:37;7.47;;;5.37;;
4652;SDS011;9900;48.738;9.306;2023-06-22T06:28:06;8.97;;;5.17;;
4652;SDS011;9900;48.738;9.306;2023-06-22T06:30:35;7.37;;;5.03;;
4652;SDS011;9900;48.738;9.306;2023-06-22T06:33:05;9.90;;;5.00;;
4652;SDS011;9900;48.738;9.306;2023-06-22T06:35:36;6.00;;;5.07;;
4652;SDS011;9900;48.738;9.306;2023-06-22T06:38:05;7.63;;;5.50;;
4652;SDS011;9900;48.738;9.306;2023-06-22T06:40:35;8.50;;;5.13;;
4652;SDS011;9900;48.738;9.306;2023-06-22T06:43:04;9.97;;;4.70;;
4652;SDS011;9900;48.738;9.306;2023-06-22T06:45:33;8.80;;;4.60;;
4652;SDS011;9900;48.738;9.306;2023-06-22T06:48:02;8.67;;;5.20;;
4652;SDS011;9900;48.738;9.306;2023-06-22T06:50:31;5.40;;;4.30;;
4652;SDS011;9900;48.738;9.306;2023-06-22T06:53:01;6.30;;;4.43;;
4652;SDS011;9900;48.738;9.306;2023-06-22T06:55:29;7.03;;;3.87;;
4652;SDS011;9900;48.738;9.306;2023-06-22T06:58:02;12.70;;;3.80;;
4652;SDS011;9900;48.738;9.306;2023-06-22T07:00:35;6.50;;;4.10;;
4652;SDS011;9900;48.738;9.306;2023-06-22T07:03:04;8.50;;;3.83;;
4652;SDS011;9900;48.738;9.306;2023-06-22T07:05:34;7.23;;;4.00;;
4652;SDS011;9900;48.738;9.306;2023-06-22T07:08:03;7.73;;;3.97;;
4652;SDS011;9900;48.738;9.306;2023-06-22T07:10:32;5.60;;;4.13;;
4652;SDS011;9900;48.738;9.306;2023-06-22T07:13:02;8.80;;;4.40;;
4652;SDS011;9900;48.738;9.306;2023-06-22T07:15:31;8.40;;;4.00;;
4652;SDS011;9900;48.738;9.306;2023-06-22T07:18:00;7.23;;;4.27;;
4652;SDS011;9900;48.738;9.306;2023-06-22T07:20:28;6.50;;;3.67;;
4652;SDS011;9900;48.738;9.306;2023-06-22T07:22:57;7.20;;;3.43;;
4652;SDS011;9900;48.738;9.306;2023-06-22T07:25:26;7.37;;;4.03;;
4652;SDS011;9900;48.738;9.306;2023-06-22T07:27:58;9.80;;;4.13;;
4652;SDS011;9900;48.738;9.306;2023-06-22T07:30:30;7.67;;;3.70;;
4652;SDS011;9900;48.738;9.306;2023-06-22T07:33:00;13.60;;;3.60;;
4652;SDS011;9900;48.738;9.306;2023-06-22T07:35:31;5.33;;;3.87;;
4652;SDS011;9900;48.738;9.306;2023-06-22T07:38:01;11.60;;;4.10;;
4652;SDS011;9900;48.738;9.306;2023-06-22T07:40:32;12.10;;;5.03;;
4652;SDS011;9900;48.738;9.306;2023-06-22T07:43:02;8.00;;;3.83;;
4652;SDS011;9900;48.738;9.306;2023-06-22T07:45:33;9.20;;;4.50;;
4652;SDS011;9900;48.738;9.306;2023-06-22T07:48:02;7.97;;;4.33;;
4652;SDS011;9900;48.738;9.306;2023-06-22T07:50:31;12.50;;;3.90;;
4652;SDS011;9900;48.738;9.306;2023-06-22T07:53:00;6.80;;;4.00;;
4652;SDS011;9900;48.738;9.306;2023-06-22T07:55:29;12.03;;;4.37;;
4652;SDS011;9900;48.738;9.306;2023-06-22T07:57:58;10.60;;;4.10;;
4652;SDS011;9900;48.738;9.306;2023-06-22T08:00:26;14.93;;;4.80;;
4652;SDS011;9900;48.738;9.306;2023-06-22T08:02:57;7.43;;;3.57;;
4652;SDS011;9900;48.738;9.306;2023-06-22T08:05:26;10.80;;;4.63;;
4652;SDS011;9900;48.738;9.306;2023-06-22T08:07:55;7.23;;;3.77;;
4652;SDS011;9900;48.738;9.306;2023-06-22T08:10:24;10.10;;;3.97;;
4652;SDS011;9900;48.738;9.306;2023-06-22T08:12:53;9.50;;;4.30;;
4652;SDS011;9900;48.738;9.306;2023-06-22T08:15:21;10.50;;;4.60;;
4652;SDS011;9900;48.738;9.306;2023-06-22T08:17:50;15.10;;;4.30;;
4652;SDS011;9900;48.738;9.306;2023-06-22T08:20:21;7.80;;;3.93;;
4652;SDS011;9900;48.738;9.306;2023-06-22T08:22:50;15.43;;;4.47;;
4652;SDS011;9900;48.738;9.306;2023-06-22T08:25:19;6.93;;;4.13;;
4652;SDS011;9900;48.738;9.306;2023-06-22T08:27:48;10.43;;;4.53;;
4652;SDS011;9900;48.738;9.306;2023-06-22T08:30:17;8.47;;;4.30;;
4652;SDS011;9900;48.738;9.306;2023-06-22T08:32:46;8.93;;;4.20;;
4652;SDS011;9900;48.738;9.306;2023-06-22T08:35:15;13.70;;;5.03;;
4652;SDS011;9900;48.738;9.306;2023-06-22T08:37:45;12.83;;;4.87;;
4652;SDS011;9900;48.738;9.306;2023-06-22T08:40:19;10.40;;;4.47;;
4652;SDS011;9900;48.738;9.306;2023-06-22T08:42:48;9.27;;;4.70;;
4652;SDS011;9900;48.738;9.306;2023-06-22T08:45:17;12.87;;;5.00;;
4652;SDS011;9900;48.738;9.306;2023-06-22T08:47:46;8.43;;;4.33;;
4652;SDS011;9900;48.738;9.306;2023-06-22T08:50:15;11.27;;;4.33;;
4652;SDS011;9900;48.738;9.306;2023-06-22T08:52:44;8.20;;;3.90;;
4652;SDS011;9900;48.738;9.306;2023-06-22T08:55:15;11.77;;;4.93;;
4652;SDS011;9900;48.738;9.306;2023-06-22T08:57:43;13.60;;;5.40;;
4652;SDS011;9900;48.738;9.306;2023-06-22T09:00:13;12.27;;;4.13;;
4652;SDS011;9900;48.738;9.306;2023-06-22T09:02:44;17.13;;;5.30;;
4652;SDS011;9900;48.738;9.306;2023-06-22T09:05:14;13.07;;;4.50;;
4652;SDS011;9900;48.738;9.306;2023-06-22T09:07:43;9.23;;;4.80;;
4652;SDS011;9900;48.738;9.306;2023-06-22T09:10:13;10.30;;;4.63;;
4652;SDS011;9900;48.738;9.306;2023-06-22T09:12:42;6.57;;;4.20;;
4652;SDS011;9900;48.738;9.306;2023-06-22T09:15:11;14.93;;;4.67;;
4652;SDS011;9900;48.738;9.306;2023-06-22T09:17:44;16.33;;;5.17;;
4652;SDS011;9900;48.738;9.306;2023-06-22T09:20:15;10.33;;;4.27;;
4652;SDS011;9900;48.738;9.306;2023-06-22T09:22:44;8.13;;;4.23;;
4652;SDS011;9900;48.738;9.306;2023-06-22T09:25:15;8.87;;;3.93;;
4652;SDS011;9900;48.738;9.306;2023-06-22T09:27:44;10.53;;;4.90;;
4652;SDS011;9900;48.738;9.306;2023-06-22T09:30:12;17.00;;;4.37;;
4652;SDS011;9900;48.738;9.306;2023-06-22T09:32:41;13.03;;;4.63;;
4652;SDS011;9900;48.738;9.306;2023-06-22T09:35:11;6.77;;;4.50;;
4652;SDS011;9900;48.738;9.306;2023-06-22T09:37:41;17.03;;;4.30;;
4652;SDS011;9900;48.738;9.306;2023-06-22T09:40:10;12.67;;;4.80;;
4652;SDS011;9900;48.738;9.306;2023-06-22T09:42:42;11.77;;;4.33;;
4652;SDS011;9900;48.738;9.306;2023-06-22T09:45:11;12.30;;;5.00;;
4652;SDS011;9900;48.738;9.306;2023-06-22T09:47:39;15.20;;;4.90;;
4652;SDS011;9900;48.738;9.306;2023-06-22T09:50:09;7.40;;;4.20;;
4652;SDS011;9900;48.738;9.306;2023-06-22T09:52:38;9.50;;;4.20;;
4652;SDS011;9900;48.738;9.306;2023-06-22T09:55:15;11.63;;;5.50;;
4652;SDS011;9900;48.738;9.306;2023-06-22T09:57:45;7.00;;;4.70;;
4652;SDS011;9900;48.738;9.306;2023-06-22T10:00:15;12.63;;;5.00;;
4652;SDS011;9900;48.738;9.306;2023-06-22T10:02:46;15.20;;;5.70;;
4652;SDS011;9900;48.738;9.306;2023-06-22T10:05:15;11.03;;;4.80;;
4652;SDS011;9900;48.738;9.306;2023-06-22T10:07:44;8.37;;;4.90;;
4652;SDS011;9900;48.738;9.306;2023-06-22T10:10:13;13.57;;;4.50;;
4652;SDS011;9900;48.738;9.306;2023-06-22T10:12:43;14.37;;;4.93;;
4652;SDS011;9900;48.738;9.306;2023-06-22T10:15:14;12.47;;;5.10;;
4652;SDS011;9900;48.738;9.306;2023-06-22T10:17:44;12.50;;;5.20;;
4652;SDS011;9900;48.738;9.306;2023-06-22T10:20:13;13.60;;;5.03;;
4652;SDS011;9900;48.738;9.306;2023-06-22T10:22:43;15.10;;;5.60;;
4652;SDS011;9900;48.738;9.306;2023-06-22T10:25:13;9.27;;;4.63;;
4652;SDS011;9900;48.738;9.306;2023-06-22T10:27:42;8.30;;;4.77;;
4652;SDS011;9900;48.738;9.306;2023-06-22T10:30:13;10.63;;;5.23;;
4652;SDS011;9900;48.738;9.306;2023-06-22T10:32:42;10.90;;;5.33;;
4652;SDS011;9900;48.738;9.306;2023-06-22T10:35:11;10.60;;;4.80;;
4652;SDS011;9900;48.738;9.306;2023-06-22T10:37:43;14.37;;;5.80;;
4652;SDS011;9900;48.738;9.306;2023-06-22T10:40:13;20.00;;;5.60;;
4652;SDS011;9900;48.738;9.306;2023-06-22T10:42:43;13.90;;;5.00;;
4652;SDS011;9900;48.738;9.306;2023-06-22T10:45:13;21.30;;;6.40;;
4652;SDS011;9900;48.738;9.306;2023-06-22T10:47:42;15.70;;;5.50;;
4652;SDS011;9900;48.738;9.306;2023-06-22T10:50:11;16.70;;;5.90;;
4652;SDS011;9900;48.738;9.306;2023-06-22T10:52:40;10.23;;;5.30;;
4652;SDS011;9900;48.738;9.306;2023-06-22T10:55:09;13.13;;;5.57;;
4652;SDS011;9900;48.738;9.306;2023-06-22T10:57:39;16.80;;;5.73;;
4652;SDS011;9900;48.738;9.306;2023-06-22T11:00:11;10.13;;;5.07;;
4652;SDS011;9900;48.738;9.306;2023-06-22T11:02:43;8.90;;;4.77;;
4652;SDS011;9900;48.738;9.306;2023-06-22T11:05:12;8.60;;;5.60;;
4652;SDS011;9900;48.738;9.306;2023-06-22T11:07:41;17.67;;;5.00;;
4652;SDS011;9900;48.738;9.306;2023-06-22T11:10:15;14.20;;;5.80;;
4652;SDS011;9900;48.738;9.306;2023-06-22T11:12:44;18.50;;;5.30;;
4652;SDS011;9900;48.738;9.306;2023-06-22T11:15:14;12.17;;;5.60;;
4652;SDS011;9900;48.738;9.306;2023-06-22T11:17:43;11.60;;;5.30;;
4652;SDS011;9900;48.738;9.306;2023-06-22T11:20:12;19.47;;;5.90;;
4652;SDS011;9900;48.738;9.306;2023-06-22T11:22:41;9.10;;;4.90;;
4652;SDS011;9900;48.738;9.306;2023-06-22T11:25:09;11.17;;;5.57;;
4652;SDS011;9900;48.738;9.306;2023-06-22T11:27:39;12.80;;;5.43;;
4652;SDS011;9900;48.738;9.306;2023-06-22T11:30:08;11.60;;;5.47;;
4652;SDS011;9900;48.738;9.306;2023-06-22T11:32:39;12.10;;;4.80;;
4652;SDS011;9900;48.738;9.306;2023-06-22T11:35:08;14.60;;;5.57;;
4652;SDS011;9900;48.738;9.306;2023-06-22T11:37:37;21.17;;;5.70;;
4652;SDS011;9900;48.738;9.306;2023-06-22T11:40:06;15.67;;;5.80;;
4652;SDS011;9900;48.738;9.306;2023-06-22T11:42:36;11.30;;;5.53;;
4652;SDS011;9900;48.738;9.306;2023-06-22T11:45:06;16.00;;;5.80;;
4652;SDS011;9900;48.738;9.306;2023-06-22T11:47:35;12.30;;;6.27;;
4652;SDS011;9900;48.738;9.306;2023-06-22T11:50:06;12.30;;;4.67;;
4652;SDS011;9900;48.738;9.306;2023-06-22T11:52:36;10.27;;;5.37;;
4652;SDS011;9900;48.738;9.306;2023-06-22T11:55:05;10.67;;;4.80;;
4652;SDS011;9900;48.738;9.306;2023-06-22T11:57:35;9.87;;;5.50;;
4652;SDS011;9900;48.738;9.306;2023-06-22T12:00:05;16.90;;;5.00;;
4652;SDS011;9900;48.738;9.306;2023-06-22T12:02:43;13.27;;;5.27;;
4652;SDS011;9900;48.738;9.306;2023-06-22T12:05:14;13.70;;;5.33;;
4652;SDS011;9900;48.738;9.306;2023-06-22T12:07:42;12.23;;;6.60;;
4652;SDS011;9900;48.738;9.306;2023-06-22T12:10:11;14.20;;;5.13;;
4652;SDS011;9900;48.738;9.306;2023-06-22T12:12:40;16.17;;;5.80;;
4652;SDS011;9900;48.738;9.306;2023-06-22T12:15:09;17.33;;;5.03;;
4652;SDS011;9900;48.738;9.306;2023-06-22T12:17:38;12.60;;;4.90;;
4652;SDS011;9900;48.738;9.306;2023-06-22T12:20:08;18.93;;;4.70;;
4652;SDS011;9900;48.738;9.306;2023-06-22T12:22:40;16.90;;;5.00;;
4652;SDS011;9900;48.738;9.306;2023-06-22T12:25:09;18.73;;;5.83;;
4652;SDS011;9900;48.738;9.306;2023-06-22T12:27:38;22.23;;;5.40;;
4652;SDS011;9900;48.738;9.306;2023-06-22T12:30:08;20.53;;;5.50;;
4652;SDS011;9900;48.738;9.306;2023-06-22T12:32:37;14.60;;;5.63;;
4652;SDS011;9900;48.738;9.306;2023-06-22T12:35:06;12.17;;;4.90;;
4652;SDS011;9900;48.738;9.306;2023-06-22T12:37:42;12.87;;;6.03;;
4652;SDS011;9900;48.738;9.306;2023-06-22T12:40:11;8.70;;;4.73;;
4652;SDS011;9900;48.738;9.306;2023-06-22T12:42:40;13.87;;;5.10;;
4652;SDS011;9900;48.738;9.306;2023-06-22T12:45:10;8.13;;;4.63;;
4652;SDS011;9900;48.738;9.306;2023-06-22T12:47:38;16.50;;;5.60;;
4652;SDS011;9900;48.738;9.306;2023-06-22T12:50:07;12.93;;;5.27;;
4652;SDS011;9900;48.738;9.306;2023-06-22T12:52:37;17.17;;;5.40;;
4652;SDS011;9900;48.738;9.306;2023-06-22T12:55:09;15.43;;;6.17;;
4652;SDS011;9900;48.738;9.306;2023-06-22T12:57:38;18.00;;;5.73;;
4652;SDS011;9900;48.738;9.306;2023-06-22T13:00:07;18.33;;;5.93;;
4652;SDS011;9900;48.738;9.306;2023-06-22T13:02:37;15.57;;;5.67;;
4652;SDS011;9900;48.738;9.306;2023-06-22T13:05:06;9.60;;;5.43;;
4652;SDS011;9900;48.738;9.306;2023-06-22T13:07:35;15.43;;;6.00;;
4652;SDS011;9900;48.738;9.306;2023-06-22T13:10:05;17.47;;;5.17;;
4652;SDS011;9900;48.738;9.306;2023-06-22T13:12:36;14.47;;;6.57;;
4652;SDS011;9900;48.738;9.306;2023-06-22T13:15:06;15.57;;;6.00;;
4652;SDS011;9900;48.738;9.306;2023-06-22T13:17:35;8.50;;;5.23;;
4652;SDS011;9900;48.738;9.306;2023-06-22T13:20:04;12.73;;;5.43;;
4652;SDS011;9900;48.738;9.306;2023-06-22T13:22:34;22.37;;;6.40;;
4652;SDS011;9900;48.738;9.306;2023-06-22T13:25:08;12.07;;;5.00;;
4652;SDS011;9900;48.738;9.306;2023-06-22T13:27:41;12.73;;;5.20;;
4652;SDS011;9900;48.738;9.306;2023-06-22T13:30:10;19.63;;;5.97;;
4652;SDS011;9900;48.738;9.306;2023-06-22T13:32:41;9.13;;;4.50;;
4652;SDS011;9900;48.738;9.306;2023-06-22T13:35:11;9.57;;;4.83;;
4652;SDS011;9900;48.738;9.306;2023-06-22T13:37:40;18.13;;;5.70;;
4652;SDS011;9900;48.738;9.306;2023-06-22T13:40:09;15.30;;;5.40;;
4652;SDS011;9900;48.738;9.306;2023-06-22T13:42:38;9.77;;;4.63;;
4652;SDS011;9900;48.738;9.306;2023-06-22T13:45:08;19.97;;;5.43;;
4652;SDS011;9900;48.738;9.306;2023-06-22T13:47:37;13.50;;;5.17;;
4652;SDS011;9900;48.738;9.306;2023-06-22T13:50:07;16.00;;;5.33;;
4652;SDS011;9900;48.738;9.306;2023-06-22T13:52:37;15.60;;;5.40;;
4652;SDS011;9900;48.738;9.306;2023-06-22T13:55:06;10.70;;;4.93;;
4652;SDS011;9900;48.738;9.306;2023-06-22T13:57:35;16.33;;;5.33;;
4652;SDS011;9900;48.738;9.306;2023-06-22T14:00:05;13.70;;;5.60;;
4652;SDS011;9900;48.738;9.306;2023-06-22T14:02:36;8.57;;;4.80;;
4652;SDS011;9900;48.738;9.306;2023-06-22T14:05:05;14.40;;;5.70;;
4652;SDS011;9900;48.738;9.306;2023-06-22T14:07:35;17.97;;;6.27;;
4652;SDS011;9900;48.738;9.306;2023-06-22T14:10:05;11.73;;;5.10;;
4652;SDS011;9900;48.738;9.306;2023-06-22T14:12:34;16.50;;;5.87;;
4652;SDS011;9900;48.738;9.306;2023-06-22T14:15:03;12.87;;;4.83;;
4652;SDS011;9900;48.738;9.306;2023-06-22T14:17:32;15.50;;;5.20;;
4652;SDS011;9900;48.738;9.306;2023-06-22T14:20:03;15.07;;;5.30;;
4652;SDS011;9900;48.738;9.306;2023-06-22T14:22:35;14.33;;;4.40;;
4652;SDS011;9900;48.738;9.306;2023-06-22T14:25:04;11.87;;;5.70;;
4652;SDS011;9900;48.738;9.306;2023-06-22T14:27:33;18.83;;;5.67;;
4652;SDS011;9900;48.738;9.306;2023-06-22T14:30:02;11.53;;;5.20;;
4652;SDS011;9900;48.738;9.306;2023-06-22T14:32:33;12.50;;;4.77;;
4652;SDS011;9900;48.738;9.306;2023-06-22T14:35:04;15.60;;;5.80;;
4652;SDS011;9900;48.738;9.306;2023-06-22T14:37:33;11.57;;;5.00;;
4652;SDS011;9900;48.738;9.306;2023-06-22T14:40:02;10.03;;;5.47;;
4652;SDS011;9900;48.738;9.306;2023-06-22T14:42:31;13.47;;;5.30;;
4652;SDS011;9900;48.738;9.306;2023-06-22T14:45:00;20.20;;;6.70;;
4652;SDS011;9900;48.738;9.306;2023-06-22T14:47:29;16.27;;;4.53;;
4652;SDS011;9900;48.738;9.306;2023-06-22T14:49:57;10.80;;;4.90;;
4652;SDS011;9900;48.738;9.306;2023-06-22T14:52:29;12.97;;;4.83;;
4652;SDS011;9900;48.738;9.306;2023-06-22T14:55:00;15.30;;;5.17;;
4652;SDS011;9900;48.738;9.306;2023-06-22T14:57:29;12.30;;;4.57;;
4652;SDS011;9900;48.738;9.306;2023-06-22T14:59:57;18.20;;;5.50;;
4652;SDS011;9900;48.738;9.306;2023-06-22T15:02:27;16.47;;;5.20;;
4652;SDS011;9900;48.738;9.306;2023-06-22T15:04:56;7.23;;;3.47;;
4652;SDS011;9900;48.738;9.306;2023-06-22T15:07:25;12.10;;;4.03;;
4652;SDS011;9900;48.738;9.306;2023-06-22T15:09:55;7.17;;;3.33;;
4652;SDS011;9900;48.738;9.306;2023-06-22T15:12:24;9.17;;;3.80;;
4652;SDS011;9900;48.738;9.306;2023-06-22T15:14:53;9.40;;;3.60;;
4652;SDS011;9900;48.738;9.306;2023-06-22T15:17:21;18.00;;;4.20;;
4652;SDS011;9900;48.738;9.306;2023-06-22T15:19:51;14.53;;;3.77;;